Time;durP1;ratioP1;P1;durP2;ratioP2;P2;SDS_P1;SDS_P2;PMS_P1;PMS_P2;Temp;Humidity;BMP_temperature;BMP_pressure;BME280_temperature;BME280_humidity;BME280_pressure;Samples;Min_cycle;Max_cycle;Signal;HPM_P1;HPM_P2
2021/06/14 00:01:10;;;;;;;5.32;2.33;;;;;;;14.10;52.08;100248.03;6344705;28;20047;-73
2021/06/14 00:04:11;;;;;;;7.32;1.90;;;;;;;14.08;52.40;100256.94;6345890;28;20039;-73
2021/06/14 00:07:16;;;;;;;6.15;1.98;;;;;;;14.07;52.03;100250.84;6344721;28;20480;-74
2021/06/14 00:10:19;;;;;;;9.07;2.53;;;;;;;13.91;53.12;100245.88;6344362;28;20044;-73
2021/06/14 00:13:22;;;;;;;3.33;1.90;;;;;;;13.91;53.30;100252.91;6328089;28;20032;-72
2021/06/14 00:16:23;;;;;;;7.45;2.20;;;;;;;13.99;53.26;100255.00;6345749;28;20103;-72
2021/06/14 00:19:23;;;;;;;4.53;2.20;;;;;;;13.87;53.20;100251.44;6344563;28;20036;-73
2021/06/14 00:22:24;;;;;;;4.07;2.08;;;;;;;13.79;53.82;100253.78;6344474;28;20118;-73
2021/06/14 00:25:29;;;;;;;5.32;2.45;;;;;;;13.73;54.55;100262.09;6344515;28;20044;-72
2021/06/14 00:28:30;;;;;;;5.05;1.92;;;;;;;13.58;54.46;100256.97;6345631;28;20060;-72
2021/06/14 00:31:31;;;;;;;4.63;2.28;;;;;;;13.61;54.51;100254.16;6348540;28;20035;-73
2021/06/14 00:34:32;;;;;;;6.65;2.28;;;;;;;13.63;54.46;100261.88;6349134;28;20108;-72
2021/06/14 00:37:33;;;;;;;5.22;2.03;;;;;;;13.55;54.86;100264.22;6350621;28;20492;-73
2021/06/14 00:40:34;;;;;;;5.10;2.40;;;;;;;13.48;55.56;100256.78;6350391;28;20071;-73
2021/06/14 00:43:35;;;;;;;6.07;2.17;;;;;;;13.38;55.59;100260.97;6349011;28;20684;-72
2021/06/14 00:46:36;;;;;;;3.50;1.90;;;;;;;13.36;56.25;100262.03;6350170;28;20043;-72
2021/06/14 00:49:37;;;;;;;4.43;2.13;;;;;;;13.26;56.22;100260.03;6350036;27;20047;-72
2021/06/14 00:52:39;;;;;;;10.25;2.30;;;;;;;13.31;55.99;100259.75;6348818;28;20040;-73
2021/06/14 00:55:40;;;;;;;4.05;2.15;;;;;;;13.43;56.23;100252.81;6349994;28;20079;-73
2021/06/14 00:58:42;;;;;;;3.33;1.95;;;;;;;13.44;56.17;100257.94;6348756;28;20497;-73
2021/06/14 01:01:42;;;;;;;4.65;2.05;;;;;;;13.55;55.05;100258.97;6348356;28;20056;-73
2021/06/14 01:04:43;;;;;;;4.38;2.03;;;;;;;13.56;55.61;100261.50;6349741;28;20422;-73
2021/06/14 01:07:44;;;;;;;5.43;2.10;;;;;;;13.45;55.01;100257.00;6349666;28;20043;-73
2021/06/14 01:10:48;;;;;;;5.60;2.25;;;;;;;13.48;55.51;100256.78;6349397;28;20059;-73
2021/06/14 01:14:13;;;;;;;5.47;1.88;;;;;;;13.52;55.49;100256.56;6349520;28;20176;-73
2021/06/14 01:17:28;;;;;;;5.05;1.90;;;;;;;13.55;55.85;100251.09;6349492;28;20043;-72
2021/06/14 01:20:32;;;;;;;4.53;1.90;;;;;;;13.49;55.57;100250.59;6349336;28;20047;-73
2021/06/14 01:23:57;;;;;;;5.50;2.17;;;;;;;13.42;56.02;100253.75;6349243;28;20043;-73
2021/06/14 01:27:00;;;;;;;4.95;1.85;;;;;;;13.48;56.17;100254.16;6349156;28;20546;-73
2021/06/14 01:30:03;;;;;;;6.53;2.10;;;;;;;13.56;56.00;100245.75;6348125;28;20078;-73
2021/06/14 01:33:08;;;;;;;6.13;2.15;;;;;;;13.57;56.16;100247.44;6349030;28;20039;-73
2021/06/14 01:36:15;;;;;;;4.90;1.60;;;;;;;13.52;57.02;100253.94;6347863;28;20039;-73
2021/06/14 01:39:16;;;;;;;2.75;1.90;;;;;;;13.44;57.43;100257.09;6348894;28;20105;-73
2021/06/14 01:42:17;;;;;;;5.57;2.20;;;;;;;13.52;56.79;100259.19;6347564;28;20151;-73
2021/06/14 01:45:20;;;;;;;7.07;2.30;;;;;;;13.57;56.71;100259.69;6348828;28;20550;-73
2021/06/14 01:48:22;;;;;;;5.05;2.15;;;;;;;13.50;57.20;100254.88;6347323;28;20052;-72
2021/06/14 01:51:27;;;;;;;7.38;1.92;;;;;;;13.43;57.86;100256.28;6347479;28;20044;-72
2021/06/14 01:54:28;;;;;;;4.68;1.98;;;;;;;13.36;58.97;100264.66;6348380;28;20474;-73
2021/06/14 01:57:30;;;;;;;6.37;2.17;;;;;;;13.35;58.99;100274.31;6348591;28;20058;-73
2021/06/14 02:00:31;;;;;;;4.35;2.10;;;;;;;13.24;59.19;100266.31;6347226;28;20039;-73
2021/06/14 02:03:32;;;;;;;5.00;1.73;;;;;;;13.29;59.16;100264.25;6347254;28;20043;-73
2021/06/14 02:06:36;;;;;;;4.43;1.92;;;;;;;13.34;59.82;100259.50;6347014;28;20046;-73
2021/06/14 02:09:37;;;;;;;3.85;1.77;;;;;;;13.30;59.60;100258.91;6347012;28;20088;-73
2021/06/14 02:12:40;;;;;;;6.90;1.63;;;;;;;13.29;60.01;100259.84;6346823;28;20490;-72
2021/06/14 02:15:41;;;;;;;3.97;1.80;;;;;;;13.30;60.08;100256.28;6348063;28;20082;-73
2021/06/14 02:18:42;;;;;;;7.95;2.03;;;;;;;13.19;60.68;100250.91;6346887;28;20044;-73
2021/06/14 02:21:44;;;;;;;6.13;1.95;;;;;;;13.16;61.30;100252.88;6346645;28;20066;-73
2021/06/14 02:24:45;;;;;;;;;;;;;;;13.21;61.15;100251.63;6348233;28;20039;-73
2021/06/14 02:27:46;;;;;;;6.57;1.70;;;;;;;13.27;61.27;100258.25;6329599;28;20018;-73
2021/06/14 02:30:47;;;;;;;4.15;2.50;;;;;;;13.16;61.54;100264.22;6346628;28;20047;-73
2021/06/14 02:33:48;;;;;;;5.75;2.10;;;;;;;13.14;61.45;100255.63;6347528;28;20524;-72
2021/06/14 02:36:50;;;;;;;5.35;1.67;;;;;;;13.12;61.82;100254.06;6347571;28;20173;-72
2021/06/14 02:39:52;;;;;;;4.82;2.13;;;;;;;13.07;62.33;100252.59;6347504;28;20564;-72
2021/06/14 02:42:53;;;;;;;6.18;1.92;;;;;;;13.13;62.19;100253.94;6347419;28;20082;-73
2021/06/14 02:45:55;;;;;;;8.13;2.10;;;;;;;13.13;61.83;100247.88;6347213;28;20035;-73
2021/06/14 02:48:57;;;;;;;4.40;1.90;;;;;;;13.17;62.02;100246.72;6346183;28;20042;-72
2021/06/14 02:51:58;;;;;;;;;;;;;;;13.13;62.13;100242.63;6346043;28;20103;-72
2021/06/14 02:55:13;;;;;;;4.55;1.88;;;;;;;12.99;63.21;100244.44;6347182;28;20386;-72
2021/06/14 02:58:14;;;;;;;4.75;1.80;;;;;;;12.95;63.76;100253.44;6347146;28;20067;-72
2021/06/14 03:01:15;;;;;;;3.65;1.60;;;;;;;13.09;63.49;100258.59;6345852;28;20046;-72
2021/06/14 03:04:17;;;;;;;8.07;1.88;;;;;;;12.99;63.96;100257.53;6328750;28;20066;-72
2021/06/14 03:07:25;;;;;;;3.55;1.85;;;;;;;13.08;64.47;100256.06;6328664;28;20122;-72
2021/06/14 03:10:29;;;;;;;6.38;2.20;;;;;;;13.13;63.92;100243.47;6345407;28;20058;-72
2021/06/14 03:13:31;;;;;;;3.28;1.80;;;;;;;13.01;65.25;100245.16;6346675;28;20039;-72
2021/06/14 03:16:33;;;;;;;5.32;2.22;;;;;;;12.95;65.28;100240.34;6346693;27;20460;-72
2021/06/14 03:19:35;;;;;;;8.00;2.50;;;;;;;12.88;65.70;100245.13;6346627;28;20035;-72
2021/06/14 03:22:38;;;;;;;4.90;2.05;;;;;;;12.78;66.58;100238.00;6328695;28;20389;-72
2021/06/14 03:25:39;;;;;;;5.50;2.17;;;;;;;12.85;66.15;100226.19;6345063;28;20035;-72
2021/06/14 03:28:44;;;;;;;7.85;2.30;;;;;;;12.89;66.34;100240.75;6346402;28;20050;-72
2021/06/14 03:31:47;;;;;;;4.97;2.17;;;;;;;12.99;65.47;100246.19;6346245;28;20047;-72
2021/06/14 03:34:49;;;;;;;4.43;2.10;;;;;;;12.94;66.15;100248.28;6345215;28;20035;-73
2021/06/14 03:37:50;;;;;;;4.03;1.70;;;;;;;12.90;66.08;100266.81;6345225;28;20054;-72
2021/06/14 03:40:52;;;;;;;8.00;2.25;;;;;;;12.87;66.13;100256.56;6346296;28;20039;-72
2021/06/14 03:43:53;;;;;;;15.73;2.28;;;;;;;12.98;66.05;100260.25;6346197;28;20062;-72
2021/06/14 03:46:54;;;;;;;4.73;2.30;;;;;;;12.97;66.16;100248.06;6346207;28;20119;-73
2021/06/14 03:49:54;;;;;;;5.57;2.22;;;;;;;13.00;66.89;100247.88;6345205;28;20470;-72
2021/06/14 03:52:55;;;;;;;4.28;2.00;;;;;;;12.91;66.93;100249.34;6346201;28;20115;-72
2021/06/14 03:56:01;;;;;;;5.60;2.42;;;;;;;12.93;67.14;100252.72;6344999;28;20397;-72
2021/06/14 03:59:03;;;;;;;5.22;2.17;;;;;;;12.88;67.60;100257.41;6346035;28;20040;-67
2021/06/14 04:02:04;;;;;;;4.78;2.50;;;;;;;13.05;67.68;100256.25;6346059;28;20458;-67
2021/06/14 04:05:06;;;;;;;5.50;2.75;;;;;;;13.10;67.68;100251.56;6347770;28;20043;-67
2021/06/14 04:08:09;;;;;;;6.22;2.35;;;;;;;13.16;67.75;100256.38;6351175;28;20525;-67
2021/06/14 04:11:10;;;;;;;7.05;3.45;;;;;;;13.22;68.17;100253.34;6349857;28;20071;-67
2021/06/14 04:14:10;;;;;;;4.30;2.30;;;;;;;13.33;67.21;100250.00;6315927;28;20035;-67
2021/06/14 04:17:11;;;;;;;4.55;2.30;;;;;;;13.42;66.55;100257.19;6350930;28;20122;-66
2021/06/14 04:20:13;;;;;;;4.38;2.13;;;;;;;13.43;66.27;100261.50;6350943;28;20043;-67
2021/06/14 04:23:14;;;;;;;10.47;2.83;;;;;;;13.42;66.94;100269.47;6349769;28;20128;-67
2021/06/14 04:26:14;;;;;;;6.10;2.25;;;;;;;13.47;66.84;100265.59;6350580;28;20084;-67
2021/06/14 04:29:15;;;;;;;7.22;2.55;;;;;;;13.51;66.32;100258.38;6349543;28;20040;-67
2021/06/14 04:32:16;;;;;;;7.80;2.47;;;;;;;13.40;67.01;100264.34;6349533;28;20406;-67
2021/06/14 04:35:17;;;;;;;7.95;2.40;;;;;;;13.46;67.31;100263.91;6350468;28;20039;-67
2021/06/14 04:38:18;;;;;;;8.13;2.30;;;;;;;13.24;68.61;100263.69;6350337;28;20065;-67
2021/06/14 04:41:19;;;;;;;4.47;2.35;;;;;;;13.29;68.49;100264.25;6350248;28;20062;-66
2021/06/14 04:44:20;;;;;;;4.70;1.98;;;;;;;13.38;68.36;100266.22;6350157;28;20085;-67
2021/06/14 04:47:21;;;;;;;5.63;1.90;;;;;;;13.38;68.75;100271.47;6348563;28;20043;-67
2021/06/14 04:50:21;;;;;;;6.88;2.15;;;;;;;13.42;69.49;100261.63;6350161;28;20051;-67
2021/06/14 04:53:22;;;;;;;5.97;2.50;;;;;;;13.57;68.52;100259.69;6349812;28;20039;-67
2021/06/14 04:56:23;;;;;;;7.43;2.28;;;;;;;13.67;68.17;100260.72;6348358;28;20054;-66
2021/06/14 04:59:24;;;;;;;7.97;2.38;;;;;;;13.66;69.24;100269.56;6331518;28;20105;-65
2021/06/14 05:02:25;;;;;;;4.95;1.80;;;;;;;13.84;67.81;100262.19;6349581;28;20497;-66
2021/06/14 05:05:26;;;;;;;7.35;2.22;;;;;;;13.89;67.96;100266.13;6331053;28;20040;-64
2021/06/14 05:08:27;;;;;;;9.60;2.40;;;;;;;13.94;68.19;100262.34;6349470;28;20394;-64
2021/06/14 05:11:27;;;;;;;4.53;2.25;;;;;;;14.08;67.02;100264.81;6331167;28;20142;-65
2021/06/14 05:14:28;;;;;;;4.00;2.20;;;;;;;14.15;68.14;100263.44;6348057;28;20127;-65
2021/06/14 05:17:29;;;;;;;7.68;2.30;;;;;;;14.29;67.44;100265.88;6330645;28;20075;-65
2021/06/14 05:20:30;;;;;;;4.03;2.10;;;;;;;14.41;66.91;100263.28;6349131;28;20406;-65
2021/06/14 05:23:31;;;;;;;5.35;2.35;;;;;;;14.46;66.54;100267.25;6348112;28;20070;-64
2021/06/14 05:26:32;;;;;;;7.72;2.22;;;;;;;14.57;66.19;100266.50;6347726;28;20551;-65
2021/06/14 05:29:32;;;;;;;6.43;2.30;;;;;;;14.69;65.17;100272.63;6349113;28;20071;-65
2021/06/14 05:32:33;;;;;;;10.02;2.60;;;;;;;14.80;65.79;100263.94;6349131;28;20039;-65
2021/06/14 05:35:34;;;;;;;6.57;2.10;;;;;;;14.97;65.47;100275.78;6347747;28;20044;-65
2021/06/14 05:38:35;;;;;;;5.32;2.30;;;;;;;15.06;63.63;100269.84;6347812;28;20051;-65
2021/06/14 05:41:36;;;;;;;8.43;2.13;;;;;;;15.14;63.83;100272.72;6349181;28;20108;-64
2021/06/14 05:44:37;;;;;;;5.78;2.15;;;;;;;15.17;62.75;100269.84;6348883;28;20031;-65
2021/06/14 05:47:38;;;;;;;4.63;2.08;;;;;;;15.24;61.69;100276.31;6347608;28;20035;-66
2021/06/14 05:50:39;;;;;;;3.90;1.83;;;;;;;15.32;61.61;100276.56;6348875;28;20042;-65
2021/06/14 05:53:40;;;;;;;3.42;1.73;;;;;;;15.38;62.02;100277.03;6347326;28;20051;-65
2021/06/14 05:56:41;;;;;;;5.95;1.88;;;;;;;15.39;61.19;100286.59;6348759;28;20050;-65
2021/06/14 05:59:41;;;;;;;5.45;1.83;;;;;;;15.46;60.63;100288.66;6347276;28;20040;-64
2021/06/14 06:02:42;;;;;;;3.60;1.80;;;;;;;15.56;61.13;100285.28;6330393;28;20051;-64
2021/06/14 06:05:43;;;;;;;6.03;1.95;;;;;;;15.61;61.48;100281.34;6347944;28;20057;-64
2021/06/14 06:08:43;;;;;;;4.25;1.90;;;;;;;15.64;61.40;100288.97;6346735;28;20127;-63
2021/06/14 06:11:44;;;;;;;5.35;1.88;;;;;;;15.85;60.04;100283.03;6346712;28;20056;-64
2021/06/14 06:14:46;;;;;;;5.57;1.95;;;;;;;16.04;59.37;100292.91;6347804;28;20126;-63
2021/06/14 06:17:48;;;;;;;7.13;2.20;;;;;;;16.33;58.65;100295.84;6346658;28;20078;-63
2021/06/14 06:20:48;;;;;;;4.85;2.30;;;;;;;16.49;57.29;100291.00;6346543;28;20063;-64
2021/06/14 06:23:49;;;;;;;7.38;2.00;;;;;;;16.46;57.70;100298.31;6346725;28;20507;-64
2021/06/14 06:26:50;;;;;;;6.28;1.70;;;;;;;16.54;57.81;100295.88;6346851;28;20040;-63
2021/06/14 06:29:51;;;;;;;4.82;1.80;;;;;;;16.66;56.62;100296.69;6347532;28;20046;-64
2021/06/14 06:32:52;;;;;;;7.40;3.08;;;;;;;16.77;55.45;100296.59;6347532;28;20043;-63
2021/06/14 06:35:53;;;;;;;3.78;1.50;;;;;;;16.83;53.71;100287.41;6363138;27;20076;-63
2021/06/14 06:38:54;;;;;;;6.32;1.73;;;;;;;16.87;54.10;100288.81;6346317;28;20039;-64
2021/06/14 06:41:57;;;;;;;3.95;1.70;;;;;;;16.80;53.86;100292.88;6329463;28;20047;-64
2021/06/14 06:44:57;;;;;;;3.78;1.70;;;;;;;16.78;53.31;100294.81;6346110;28;20394;-64
2021/06/14 06:47:58;;;;;;;3.00;1.60;;;;;;;16.95;53.98;100296.09;6345862;28;20047;-64
2021/06/14 06:50:59;;;;;;;5.07;1.65;;;;;;;17.04;53.11;100298.75;6345877;28;20050;-64
2021/06/14 06:54:12;;;;;;;3.40;1.80;;;;;;;17.05;53.33;100308.34;6345825;28;20058;-64
2021/06/14 06:57:14;;;;;;;1.88;1.23;;;;;;;17.02;52.43;100303.31;6345780;28;20101;-63
2021/06/14 07:00:18;;;;;;;3.30;1.58;;;;;;;17.04;53.14;100303.19;6346874;28;20062;-63
2021/06/14 07:03:19;;;;;;;10.05;1.98;;;;;;;17.02;53.16;100313.03;6346767;28;20403;-64
2021/06/14 07:06:20;;;;;;;4.43;1.60;;;;;;;16.99;53.03;100302.78;6345493;28;20048;-64
2021/06/14 07:09:20;;;;;;;5.90;1.88;;;;;;;16.95;52.48;100304.81;6345349;28;20093;-64
2021/06/14 07:12:21;;;;;;;3.25;1.60;;;;;;;17.02;53.29;100300.69;6345305;28;20055;-64
2021/06/14 07:15:22;;;;;;;2.60;1.55;;;;;;;17.14;53.77;100306.72;6328410;28;20035;-64
2021/06/14 07:18:23;;;;;;;3.05;1.48;;;;;;;17.28;52.09;100303.75;6345218;28;20036;-64
2021/06/14 07:21:24;;;;;;;4.07;1.55;;;;;;;17.35;52.15;100306.72;6345219;28;20588;-64
2021/06/14 07:24:25;;;;;;;4.25;1.50;;;;;;;17.44;51.86;100303.28;6346389;28;20043;-64
2021/06/14 07:27:25;;;;;;;4.50;1.38;;;;;;;17.41;51.20;100300.06;6346161;28;20046;-63
2021/06/14 07:30:27;;;;;;;3.60;1.67;;;;;;;17.43;51.96;100309.53;6346389;28;20039;-69
2021/06/14 07:33:28;;;;;;;5.10;1.63;;;;;;;17.71;52.64;100301.88;6346192;28;20051;-65
2021/06/14 07:36:30;;;;;;;9.07;1.80;;;;;;;17.98;50.35;100311.84;6344935;28;20043;-64
2021/06/14 07:39:30;;;;;;;;;;;;;;;17.99;48.66;100307.41;6346474;28;20089;-65
2021/06/14 07:42:32;;;;;;;5.72;1.92;;;;;;;18.08;50.36;100309.25;6346165;28;19920;-65
2021/06/14 07:45:33;;;;;;;5.50;1.70;;;;;;;18.00;51.17;100315.19;6345880;28;20067;-64
2021/06/14 07:48:35;;;;;;;10.00;1.80;;;;;;;17.77;50.91;100308.41;6344782;28;20031;-64
2021/06/14 07:51:36;;;;;;;5.38;1.85;;;;;;;17.59;51.66;100313.50;6346165;28;20052;-65
2021/06/14 07:54:37;;;;;;;3.78;1.60;;;;;;;17.53;51.95;100315.69;6346106;28;20035;-64
2021/06/14 07:57:39;;;;;;;7.40;1.88;;;;;;;17.49;52.09;100319.53;6345808;28;20044;-64
2021/06/14 08:00:41;;;;;;;2.85;1.50;;;;;;;17.39;52.55;100331.03;6361612;28;20495;-64
2021/06/14 08:03:42;;;;;;;9.00;1.90;;;;;;;17.39;52.43;100326.56;6345855;28;20551;-64
2021/06/14 08:06:44;;;;;;;6.28;1.85;;;;;;;17.47;52.63;100324.13;6346059;28;20036;-63
2021/06/14 08:09:46;;;;;;;5.90;1.60;;;;;;;17.60;52.10;100313.34;6344518;28;20036;-64
2021/06/14 08:12:51;;;;;;;2.83;1.60;;;;;;;17.76;51.93;100317.31;6344378;28;20478;-64
2021/06/14 08:15:52;;;;;;;6.60;2.00;;;;;;;18.15;50.45;100317.44;6345562;28;20047;-64
2021/06/14 08:25:15;;;;;;;5.47;1.65;;;;;;;18.21;51.84;100316.91;6345575;28;20084;-64
2021/06/14 08:28:16;;;;;;;3.20;1.70;;;;;;;18.25;51.25;100310.38;6345400;28;20043;-64
2021/06/14 08:31:17;;;;;;;4.97;1.60;;;;;;;18.37;51.54;100309.28;6344354;28;20071;-64
2021/06/14 08:34:17;;;;;;;6.78;2.08;;;;;;;18.33;50.06;100311.34;6344168;28;20050;-63
2021/06/14 08:37:18;;;;;;;4.25;1.65;;;;;;;18.20;50.86;100302.88;6345506;28;20047;-64
2021/06/14 08:40:27;;;;;;;7.15;1.60;;;;;;;18.49;51.04;100305.53;6327164;28;20040;-63
2021/06/14 08:43:28;;;;;;;4.57;1.70;;;;;;;18.47;47.82;100307.47;6344338;28;20492;-64
2021/06/14 08:46:29;;;;;;;5.97;1.33;;;;;;;18.34;48.34;100312.19;6343964;28;20132;-64
2021/06/14 08:49:31;;;;;;;3.67;1.40;;;;;;;18.40;47.37;100309.00;6344075;28;20047;-64
2021/06/14 08:52:32;;;;;;;5.22;1.40;;;;;;;18.42;46.85;100311.50;6349443;28;20051;-64
2021/06/14 08:55:34;;;;;;;6.20;1.60;;;;;;;18.78;45.67;100306.47;6348673;28;20039;-64
2021/06/14 08:58:35;;;;;;;4.83;1.50;;;;;;;19.15;45.22;100303.13;6349719;28;20276;-64
2021/06/14 09:01:36;;;;;;;5.15;1.48;;;;;;;19.13;46.43;100309.41;6348466;28;20757;-64
2021/06/14 09:04:37;;;;;;;3.35;1.60;;;;;;;18.98;47.75;100310.81;6349687;28;20084;-64
2021/06/14 09:07:40;;;;;;;3.38;1.63;;;;;;;18.91;46.25;100310.53;6331613;28;20044;-64
2021/06/14 09:10:41;;;;;;;5.43;1.48;;;;;;;18.85;45.87;100300.53;6349366;28;20085;-64
2021/06/14 09:13:42;;;;;;;2.90;1.40;;;;;;;18.83;46.35;100306.94;6348275;28;20050;-64
2021/06/14 09:16:43;;;;;;;3.28;1.30;;;;;;;18.87;45.49;100308.31;6349325;27;20047;-64
2021/06/14 09:19:51;;;;;;;3.97;1.47;;;;;;;19.23;44.24;100312.03;6349328;28;20379;-63
2021/06/14 09:22:53;;;;;;;4.28;1.52;;;;;;;19.64;44.25;100307.28;6349279;28;20127;-64
2021/06/14 09:25:54;;;;;;;5.85;1.67;;;;;;;19.76;43.14;100301.81;6347933;28;20473;-64
2021/06/14 09:28:58;;;;;;;4.35;1.67;;;;;;;19.50;42.85;100302.47;6347829;28;20093;-63
2021/06/14 09:32:02;;;;;;;3.78;1.42;;;;;;;19.31;43.15;100306.00;6347979;28;20035;-67
2021/06/14 09:35:07;;;;;;;4.07;1.50;;;;;;;19.32;43.07;100302.38;6347882;28;20370;-67
2021/06/14 09:38:14;;;;;;;2.38;1.20;;;;;;;19.55;42.93;100309.97;6347817;28;20047;-66
2021/06/14 09:41:17;;;;;;;6.35;1.40;;;;;;;19.82;41.84;100304.69;6348845;28;20111;-66
2021/06/14 09:44:32;;;;;;;6.38;1.58;;;;;;;19.89;40.63;100299.66;6349035;28;20081;-66
2021/06/14 09:47:33;;;;;;;3.40;1.38;;;;;;;19.91;40.57;100289.75;6348903;28;20491;-66
2021/06/14 09:50:34;;;;;;;4.37;1.70;;;;;;;19.62;40.71;100298.66;6348848;28;20036;-66
2021/06/14 09:53:51;;;;;;;3.30;1.37;;;;;;;19.43;42.32;100290.78;6348708;28;20036;-66
2021/06/14 09:56:54;;;;;;;1.92;1.35;;;;;;;19.48;41.55;100291.19;6348709;28;20410;-67
2021/06/14 10:00:07;;;;;;;4.82;1.20;;;;;;;19.54;41.82;100301.19;6347761;28;20057;-67
2021/06/14 10:03:09;;;;;;;3.13;1.27;;;;;;;19.51;41.71;100302.31;6347409;28;20406;-67
2021/06/14 10:06:10;;;;;;;7.65;1.50;;;;;;;19.91;41.79;100284.44;6348477;28;20083;-66
2021/06/14 10:09:13;;;;;;;2.05;1.27;;;;;;;20.11;39.33;100293.94;6347476;28;20067;-66
2021/06/14 10:12:18;;;;;;;3.63;1.30;;;;;;;20.21;40.22;100290.41;6347008;28;20501;-66
2021/06/14 10:15:37;;;;;;;1.67;1.05;;;;;;;20.40;39.29;100290.25;6348380;28;20071;-66
2021/06/14 10:18:59;;;;;;;6.60;1.38;;;;;;;20.38;38.98;100297.50;6348098;28;20110;-66
2021/06/14 10:21:59;;;;;;;1.70;1.20;;;;;;;20.31;38.44;100296.47;6348068;28;20043;-66
2021/06/14 10:25:00;;;;;;;2.53;1.23;;;;;;;20.16;38.66;100292.66;6347120;28;20048;-66
2021/06/14 10:28:03;;;;;;;4.87;1.30;;;;;;;19.92;40.61;100294.91;6347873;28;20047;-66
2021/06/14 10:31:05;;;;;;;4.40;1.40;;;;;;;19.83;40.18;100287.84;6347807;28;20074;-66
2021/06/14 10:34:06;;;;;;;12.35;1.40;;;;;;;20.43;39.70;100292.59;6347756;28;20098;-65
2021/06/14 10:37:07;;;;;;;4.18;1.48;;;;;;;20.25;38.44;100284.66;6347613;28;20075;-66
2021/06/14 10:40:10;;;;;;;1.40;1.30;;;;;;;20.10;39.81;100283.50;6347592;28;20042;-66
2021/06/14 10:43:11;;;;;;;2.80;1.40;;;;;;;19.93;40.87;100287.78;6346484;28;20440;-66
2021/06/14 10:46:14;;;;;;;3.50;1.45;;;;;;;19.91;38.94;100298.53;6346135;28;20478;-65
2021/06/14 10:49:16;;;;;;;4.80;1.17;;;;;;;20.19;38.80;100295.84;6347291;28;20112;-65
2021/06/14 10:52:17;;;;;;;7.00;1.23;;;;;;;20.25;37.70;100297.06;6345934;28;20475;-65
2021/06/14 10:55:22;;;;;;;5.07;1.20;;;;;;;20.29;37.33;100295.78;6345993;28;20047;-65
2021/06/14 10:58:24;;;;;;;5.20;1.50;;;;;;;20.56;37.66;100294.88;6345680;28;20039;-65
2021/06/14 11:01:45;;;;;;;6.55;1.30;;;;;;;20.26;39.04;100296.94;6346958;28;20047;-65
2021/06/14 11:04:45;;;;;;;9.40;1.40;;;;;;;19.96;38.02;100294.63;6346909;28;20031;-66
2021/06/14 11:07:46;;;;;;;4.27;1.10;;;;;;;19.61;39.63;100299.63;6328618;28;20044;-66
2021/06/14 11:11:00;;;;;;;2.60;0.93;;;;;;;19.47;35.92;100297.47;6345466;28;20047;-68
2021/06/14 11:14:01;;;;;;;6.85;1.10;;;;;;;19.39;33.68;100306.09;6345055;28;20066;-65
2021/06/14 11:17:26;;;;;;;3.07;1.40;;;;;;;19.51;34.87;100298.84;6345315;28;20432;-66
2021/06/14 11:20:36;;;;;;;1.75;1.17;;;;;;;19.69;35.69;100301.56;6337678;28;20059;-67
2021/06/14 11:23:39;;;;;;;4.80;1.40;;;;;;;19.82;37.33;100299.41;6346481;28;20119;-66
2021/06/14 11:26:40;;;;;;;1.55;1.00;;;;;;;19.98;37.32;100293.47;6346354;28;20032;-67
2021/06/14 11:29:52;;;;;;;8.20;1.27;;;;;;;20.07;37.81;100284.63;6344963;28;20050;-67
2021/06/14 11:32:53;;;;;;;1.77;1.08;;;;;;;20.02;37.47;100294.84;6346287;28;20104;-68
2021/06/14 11:35:58;;;;;;;3.20;1.40;;;;;;;20.09;37.31;100287.13;6344914;28;20467;-67
2021/06/14 11:39:10;;;;;;;4.15;1.15;;;;;;;20.20;37.67;100289.56;6344936;28;20097;-67
2021/06/14 11:42:20;;;;;;;3.53;1.27;;;;;;;20.06;37.73;100293.56;6346091;28;20044;-67
2021/06/14 11:45:33;;;;;;;3.13;1.25;;;;;;;19.80;37.20;100301.38;6346504;28;20040;-68
2021/06/14 11:48:34;;;;;;;4.68;1.27;;;;;;;20.00;36.32;100303.94;6346015;28;20089;-68
2021/06/14 11:51:35;;;;;;;3.90;1.10;;;;;;;19.89;36.43;100310.25;6346073;28;20043;-67
2021/06/14 11:54:39;;;;;;;3.97;1.35;;;;;;;20.37;36.86;100305.63;6346028;28;20044;-67
2021/06/14 11:57:43;;;;;;;4.63;1.30;;;;;;;20.66;36.53;100286.88;6345932;28;20409;-67
2021/06/14 12:00:46;;;;;;;8.98;1.50;;;;;;;20.45;36.39;100280.03;6344599;28;20040;-67
2021/06/14 12:04:00;;;;;;;5.18;1.63;;;;;;;20.28;37.08;100280.84;6345875;28;20036;-67
2021/06/14 12:07:03;;;;;;;5.75;1.38;;;;;;;20.25;38.18;100283.81;6345732;28;20092;-68
2021/06/14 12:10:10;;;;;;;5.97;1.50;;;;;;;20.26;38.51;100286.31;6328105;28;20047;-67
2021/06/14 12:13:12;;;;;;;10.85;7.03;;;;;;;20.10;37.87;100272.91;6346280;28;20047;-68
2021/06/14 12:16:14;;;;;;;2.80;1.70;;;;;;;20.03;36.23;100267.38;6327818;28;20051;-68
2021/06/14 12:19:15;;;;;;;2.90;1.40;;;;;;;19.83;35.97;100277.25;6345707;28;20050;-67
2021/06/14 12:22:19;;;;;;;5.40;1.50;;;;;;;19.95;35.55;100267.28;6344477;28;20098;-67
2021/06/14 12:25:20;;;;;;;9.77;3.88;;;;;;;20.88;33.25;100281.06;6344931;28;20059;-67
2021/06/14 12:28:22;;;;;;;8.53;4.70;;;;;;;21.41;33.00;100286.34;6349356;28;20043;-68
2021/06/14 12:31:23;;;;;;;6.65;3.78;;;;;;;20.85;34.87;100265.47;6350512;28;20120;-67
2021/06/14 12:34:28;;;;;;;10.33;8.90;;;;;;;20.59;35.49;100257.50;6332336;28;20042;-68
2021/06/14 12:37:29;;;;;;;13.85;4.85;;;;;;;20.57;36.10;100266.53;6349240;28;20044;-67
2021/06/14 12:40:29;;;;;;;7.18;2.50;;;;;;;20.28;36.87;100263.16;6350233;28;20063;-67
2021/06/14 12:43:32;;;;;;;3.97;1.43;;;;;;;20.45;35.59;100255.38;6350318;28;20397;-67
2021/06/14 12:46:34;;;;;;;4.40;1.05;;;;;;;20.69;36.79;100266.19;6350059;28;20047;-67
2021/06/14 12:49:35;;;;;;;2.53;1.30;;;;;;;20.44;38.02;100270.41;6348851;28;20039;-67
2021/06/14 12:52:38;;;;;;;2.73;1.07;;;;;;;20.38;39.83;100254.28;6349963;28;20549;-68
2021/06/14 12:55:41;;;;;;;3.08;1.33;;;;;;;20.17;38.19;100251.94;6350229;27;20092;-67
2021/06/14 12:58:43;;;;;;;3.20;1.77;;;;;;;20.16;38.96;100256.44;6331845;28;20046;-67
2021/06/14 13:01:44;;;;;;;3.53;1.20;;;;;;;20.76;37.70;100250.50;6348474;28;20413;-67
2021/06/14 13:04:45;;;;;;;2.03;1.25;;;;;;;21.47;35.44;100248.59;6343603;28;20053;-67
2021/06/14 13:07:57;;;;;;;4.63;1.20;;;;;;;22.42;34.70;100248.34;6324468;28;20040;-65
2021/06/14 13:10:58;;;;;;;4.85;1.45;;;;;;;21.81;35.55;100245.91;6325024;28;20084;-67
2021/06/14 13:13:58;;;;;;;2.80;1.30;;;;;;;21.85;35.71;100241.09;6327620;28;20064;-67
2021/06/14 13:17:00;;;;;;;5.23;1.30;;;;;;;21.20;36.68;100252.25;6350947;28;20048;-66
2021/06/14 13:20:01;;;;;;;;;;;;;;;21.22;36.64;100260.88;6350001;28;20461;-72
2021/06/14 13:23:22;;;;;;;3.35;1.10;;;;;;;21.09;35.46;100243.56;6337821;28;19926;-71
2021/06/14 13:26:36;;;;;;;3.10;1.10;;;;;;;21.25;36.67;100242.84;6328451;28;20122;-72
2021/06/14 13:29:36;;;;;;;2.80;1.00;;;;;;;21.05;34.85;100246.72;6327333;28;20109;-74
2021/06/14 13:36:01;;;;;;;3.78;1.20;;;;;;;20.54;34.45;100254.44;6337421;28;20410;-70
2021/06/14 13:39:05;;;;;;;3.08;0.60;;;;;;;20.14;33.57;100242.50;6322743;28;20478;-72
2021/06/14 13:42:10;;;;;;;5.22;0.80;;;;;;;20.31;32.72;100252.25;6337189;28;20153;-74
2021/06/14 13:45:11;;;;;;;4.80;0.90;;;;;;;20.85;31.74;100246.91;6346816;28;20051;-72
2021/06/14 13:48:13;;;;;;;1.17;0.80;;;;;;;21.00;32.16;100241.03;6322603;28;20079;-68
2021/06/14 13:51:19;;;;;;;1.83;0.80;;;;;;;21.17;32.98;100248.09;6322617;28;20044;-68
2021/06/14 13:54:20;;;;;;;3.28;1.20;;;;;;;20.67;35.24;100246.09;6323471;28;20044;-67
2021/06/14 13:57:20;;;;;;;5.93;1.27;;;;;;;20.59;36.16;100249.53;6341987;28;20405;-68
2021/06/14 14:00:26;;;;;;;5.43;1.40;;;;;;;20.17;37.75;100252.78;6347565;28;20096;-67
2021/06/14 14:03:28;;;;;;;6.45;1.23;;;;;;;20.01;39.05;100253.44;6347224;28;20039;-68
2021/06/14 14:06:28;;;;;;;6.72;1.40;;;;;;;19.93;37.74;100254.22;6343613;28;20082;-68
2021/06/14 14:09:29;;;;;;;2.73;1.10;;;;;;;19.89;39.61;100249.34;6322683;28;20095;-68
2021/06/14 14:12:30;;;;;;;1.40;1.10;;;;;;;19.96;39.73;100253.06;6322197;28;20067;-68
2021/06/14 14:15:31;;;;;;;3.13;1.53;;;;;;;19.77;41.17;100261.13;6322643;28;20044;-68
2021/06/14 14:18:32;;;;;;;2.93;1.20;;;;;;;19.28;41.46;100262.16;6323162;28;20109;-67
2021/06/14 14:21:33;;;;;;;2.67;1.30;;;;;;;18.83;41.49;100259.34;6321670;28;20449;-67